Time;durP1;ratioP1;P1;durP2;ratioP2;P2;SDS_P1;SDS_P2;PMS_P1;PMS_P2;Temp;Humidity;BMP_temperature;BMP_pressure;BME280_temperature;BME280_humidity;BME280_pressure;Samples;Min_cycle;Max_cycle;Signal;HPM_P1;HPM_P2
2021/12/03 00:00:11;;;;;;;16.58;14.23;;;;;;;;;;5016196;28;20661;-68
2021/12/03 00:02:38;;;;;;;20.55;14.90;;;;;;;;;;5016193;28;20196;-68
2021/12/03 00:05:07;;;;;;;18.90;15.27;;;;;;;;;;5016476;28;20279;-68
2021/12/03 00:07:36;;;;;;;20.65;15.35;;;;;;;;;;5016183;28;20751;-68
2021/12/03 00:10:04;;;;;;;19.20;14.38;;;;;;;;;;5016026;28;20290;-68
2021/12/03 00:12:32;;;;;;;18.10;16.20;;;;;;;;;;5016023;28;20283;-69
2021/12/03 00:14:59;;;;;;;22.15;16.83;;;;;;;;;;5016213;28;20223;-68
2021/12/03 00:17:26;;;;;;;23.77;17.60;;;;;;;;;;5015728;28;20319;-69
2021/12/03 00:19:53;;;;;;;31.52;18.42;;;;;;;;;;5015744;28;20200;-68
2021/12/03 00:22:22;;;;;;;26.42;17.98;;;;;;;;;;5016053;28;20283;-69
2021/12/03 00:24:49;;;;;;;18.35;14.90;;;;;;;;;;5016029;28;20202;-69
2021/12/03 00:27:17;;;;;;;23.98;17.33;;;;;;;;;;5016004;28;20243;-69
2021/12/03 00:29:44;;;;;;;24.35;17.90;;;;;;;;;;5014853;28;20596;-69
2021/12/03 00:32:11;;;;;;;21.92;17.35;;;;;;;;;;5015584;28;20680;-68
2021/12/03 00:34:38;;;;;;;19.77;14.75;;;;;;;;;;5015875;28;20239;-69
2021/12/03 00:37:06;;;;;;;46.00;18.63;;;;;;;;;;5015837;28;20542;-69
2021/12/03 00:39:34;;;;;;;22.02;14.75;;;;;;;;;;5015381;28;20282;-69
2021/12/03 00:42:03;;;;;;;27.38;18.80;;;;;;;;;;5015567;28;20287;-69
2021/12/03 00:44:30;;;;;;;63.53;22.60;;;;;;;;;;5015577;28;20192;-69
2021/12/03 00:46:59;;;;;;;25.13;19.13;;;;;;;;;;5015483;28;20216;-69
2021/12/03 00:49:27;;;;;;;32.65;20.45;;;;;;;;;;5015156;28;20200;-69
2021/12/03 00:51:54;;;;;;;34.20;17.77;;;;;;;;;;5015166;28;20227;-69
2021/12/03 00:54:22;;;;;;;35.97;20.55;;;;;;;;;;5015440;28;20196;-69
2021/12/03 00:56:50;;;;;;;36.13;20.10;;;;;;;;;;5015421;28;20234;-68
2021/12/03 00:59:17;;;;;;;35.55;21.05;;;;;;;;;;5015349;28;20284;-68
2021/12/03 01:01:45;;;;;;;41.45;20.98;;;;;;;;;;5015329;28;20275;-68
2021/12/03 01:04:12;;;;;;;18.02;14.60;;;;;;;;;;5015283;28;20303;-69
2021/12/03 01:06:39;;;;;;;39.00;20.52;;;;;;;;;;5015239;28;20287;-69
2021/12/03 01:09:06;;;;;;;35.22;21.33;;;;;;;;;;5014848;28;20200;-69
2021/12/03 01:11:34;;;;;;;33.28;19.67;;;;;;;;;;5014698;28;20290;-68
2021/12/03 01:14:02;;;;;;;23.73;17.05;;;;;;;;;;5014687;28;20287;-67
2021/12/03 01:16:30;;;;;;;28.05;20.67;;;;;;;;;;5014451;28;20335;-68
2021/12/03 01:18:58;;;;;;;32.33;20.27;;;;;;;;;;5015272;28;20279;-68
2021/12/03 01:21:26;;;;;;;31.35;21.58;;;;;;;;;;5014904;28;20549;-68
2021/12/03 01:23:53;;;;;;;27.05;20.30;;;;;;;;;;5014780;28;20295;-68
2021/12/03 01:26:21;;;;;;;30.00;21.75;;;;;;;;;;5014716;28;20223;-69
2021/12/03 01:28:48;;;;;;;39.22;20.38;;;;;;;;;;5015396;28;20306;-69
2021/12/03 01:31:18;;;;;;;37.33;23.15;;;;;;;;;;5014676;28;20261;-67
2021/12/03 01:33:46;;;;;;;37.88;20.30;;;;;;;;;;5015135;28;20235;-67
2021/12/03 01:36:14;;;;;;;33.88;22.17;;;;;;;;;;5014657;28;20195;-67
2021/12/03 01:38:41;;;;;;;47.65;25.42;;;;;;;;;;5014756;28;20283;-67
2021/12/03 01:41:08;;;;;;;36.00;21.73;;;;;;;;;;5014187;28;20198;-67
2021/12/03 01:43:35;;;;;;;35.70;22.52;;;;;;;;;;5014227;28;20283;-69
2021/12/03 01:46:04;;;;;;;32.13;23.17;;;;;;;;;;5013996;28;20199;-68
2021/12/03 01:48:33;;;;;;;27.95;18.33;;;;;;;;;;5014061;28;20314;-66
2021/12/03 01:51:00;;;;;;;38.33;23.88;;;;;;;;;;5014449;28;20200;-66
2021/12/03 01:53:29;;;;;;;40.13;23.55;;;;;;;;;;5014263;28;20291;-67
2021/12/03 01:55:58;;;;;;;38.40;22.77;;;;;;;;;;5014468;28;20278;-67
2021/12/03 01:58:25;;;;;;;28.70;17.30;;;;;;;;;;5014419;28;20295;-67
2021/12/03 02:00:54;;;;;;;40.17;26.77;;;;;;;;;;5014209;28;20243;-69
2021/12/03 02:03:22;;;;;;;43.25;27.02;;;;;;;;;;5014463;28;20553;-67
2021/12/03 02:05:51;;;;;;;49.22;28.50;;;;;;;;;;5014115;28;20236;-69
2021/12/03 02:08:19;;;;;;;42.67;29.40;;;;;;;;;;5014029;28;20275;-68
2021/12/03 02:10:46;;;;;;;44.05;27.75;;;;;;;;;;5013764;28;20198;-67
2021/12/03 02:13:14;;;;;;;48.38;29.90;;;;;;;;;;5013971;28;20192;-68
2021/12/03 02:15:42;;;;;;;46.45;29.80;;;;;;;;;;5014033;28;20612;-67
2021/12/03 02:18:09;;;;;;;47.67;29.10;;;;;;;;;;5013984;28;20322;-68
2021/12/03 02:20:42;;;;;;;45.47;25.88;;;;;;;;;;5013600;28;20602;-70
2021/12/03 02:23:09;;;;;;;46.00;26.83;;;;;;;;;;5013986;28;20605;-70
2021/12/03 02:25:37;;;;;;;37.75;22.52;;;;;;;;;;5014205;28;20200;-68
2021/12/03 02:28:04;;;;;;;48.25;26.63;;;;;;;;;;5013722;28;20247;-68
2021/12/03 02:30:31;;;;;;;55.40;33.17;;;;;;;;;;5013759;28;20614;-68
2021/12/03 02:32:58;;;;;;;62.17;32.47;;;;;;;;;;5013671;28;20196;-68
2021/12/03 02:35:26;;;;;;;60.53;32.67;;;;;;;;;;5013400;28;20283;-68
2021/12/03 02:37:56;;;;;;;62.53;33.42;;;;;;;;;;5013623;28;20201;-69
2021/12/03 02:40:24;;;;;;;71.82;33.40;;;;;;;;;;5013885;28;20292;-69
2021/12/03 02:42:51;;;;;;;62.08;32.45;;;;;;;;;;5013707;28;20294;-69
2021/12/03 02:45:19;;;;;;;65.85;33.60;;;;;;;;;;5013178;28;20286;-68
2021/12/03 02:47:46;;;;;;;71.18;35.80;;;;;;;;;;5013802;28;20306;-69
2021/12/03 02:50:14;;;;;;;69.35;34.28;;;;;;;;;;5013606;28;20287;-69
2021/12/03 02:52:42;;;;;;;63.97;36.97;;;;;;;;;;5012776;28;20683;-69
2021/12/03 02:55:11;;;;;;;71.75;36.88;;;;;;;;;;5013529;28;20608;-69
2021/12/03 02:57:38;;;;;;;73.82;37.15;;;;;;;;;;5013653;28;20230;-69
2021/12/03 03:00:07;;;;;;;74.45;36.17;;;;;;;;;;5013734;28;20196;-69
2021/12/03 03:02:34;;;;;;;75.40;40.30;;;;;;;;;;5013132;28;20202;-68
2021/12/03 03:05:01;;;;;;;69.68;38.55;;;;;;;;;;5013913;28;20284;-70
2021/12/03 03:07:29;;;;;;;75.45;37.85;;;;;;;;;;5012950;28;20295;-69
2021/12/03 03:09:57;;;;;;;88.38;41.08;;;;;;;;;;5013074;28;20201;-71
2021/12/03 03:12:26;;;;;;;85.97;42.20;;;;;;;;;;5013351;28;20204;-71
2021/12/03 03:14:55;;;;;;;77.55;37.38;;;;;;;;;;5013297;28;20235;-70
2021/12/03 03:17:23;;;;;;;88.07;43.67;;;;;;;;;;5012842;28;20697;-71
2021/12/03 03:19:50;;;;;;;86.28;42.53;;;;;;;;;;5012859;28;20196;-71
2021/12/03 03:22:18;;;;;;;74.80;39.97;;;;;;;;;;5012883;28;20207;-71
2021/12/03 03:24:46;;;;;;;90.07;44.97;;;;;;;;;;5013196;28;20207;-69
2021/12/03 03:27:13;;;;;;;78.85;40.92;;;;;;;;;;5012834;28;20283;-69
2021/12/03 03:29:44;;;;;;;72.80;39.88;;;;;;;;;;5012740;28;20744;-70
2021/12/03 03:32:11;;;;;;;63.75;40.67;;;;;;;;;;5013463;28;20190;-69
2021/12/03 03:34:39;;;;;;;79.63;40.92;;;;;;;;;;5013084;28;20307;-70
2021/12/03 03:37:06;;;;;;;81.55;44.40;;;;;;;;;;5013031;28;20676;-71
2021/12/03 03:39:33;;;;;;;81.88;41.47;;;;;;;;;;5012753;28;20290;-71
2021/12/03 03:42:01;;;;;;;82.97;43.80;;;;;;;;;;5013047;28;20239;-71
2021/12/03 03:44:28;;;;;;;80.18;42.40;;;;;;;;;;5013301;28;20288;-70
2021/12/03 03:46:57;;;;;;;81.57;42.50;;;;;;;;;;5012529;28;20235;-70
2021/12/03 03:49:25;;;;;;;70.20;39.40;;;;;;;;;;5012974;28;20220;-70
2021/12/03 03:51:53;;;;;;;77.47;37.00;;;;;;;;;;5012957;28;20506;-70
2021/12/03 03:54:20;;;;;;;78.90;41.80;;;;;;;;;;5012570;28;20200;-70
2021/12/03 03:56:48;;;;;;;64.80;38.83;;;;;;;;;;5012553;28;20291;-70
2021/12/03 03:59:17;;;;;;;64.20;32.40;;;;;;;;;;5012866;28;20230;-71
2021/12/03 04:01:44;;;;;;;69.97;36.20;;;;;;;;;;5012924;28;20283;-71
2021/12/03 04:04:13;;;;;;;80.53;40.13;;;;;;;;;;5013690;28;20258;-70
2021/12/03 04:06:40;;;;;;;98.97;46.38;;;;;;;;;;5016353;28;20283;-70
2021/12/03 04:09:08;;;;;;;80.28;39.05;;;;;;;;;;5015926;28;20707;-71
2021/12/03 04:11:35;;;;;;;92.97;44.95;;;;;;;;;;5016251;28;20228;-70
2021/12/03 04:14:03;;;;;;;81.22;39.65;;;;;;;;;;5016225;28;20287;-71
2021/12/03 04:16:30;;;;;;;94.72;47.90;;;;;;;;;;5016046;28;20321;-71
2021/12/03 04:18:57;;;;;;;86.20;42.53;;;;;;;;;;5016170;28;20191;-71
2021/12/03 04:21:26;;;;;;;93.38;45.47;;;;;;;;;;5016095;28;20621;-71
2021/12/03 04:23:54;;;;;;;93.65;41.42;;;;;;;;;;5015873;28;20290;-70
2021/12/03 04:26:22;;;;;;;94.00;46.05;;;;;;;;;;5015660;28;20197;-70
2021/12/03 04:28:49;;;;;;;91.95;42.47;;;;;;;;;;5015740;28;20311;-71
2021/12/03 04:31:17;;;;;;;89.53;42.55;;;;;;;;;;5015588;28;20193;-71
2021/12/03 04:33:44;;;;;;;83.45;42.35;;;;;;;;;;5015564;28;20197;-71
2021/12/03 04:36:11;;;;;;;79.70;35.70;;;;;;;;;;5015784;28;20287;-71
2021/12/03 04:38:40;;;;;;;100.13;43.33;;;;;;;;;;5015803;28;20291;-71
2021/12/03 04:41:07;;;;;;;96.13;44.63;;;;;;;;;;5016129;28;20553;-71
2021/12/03 04:43:34;;;;;;;96.60;43.67;;;;;;;;;;5015417;28;20231;-71
2021/12/03 04:46:02;;;;;;;88.25;39.70;;;;;;;;;;5015572;28;20287;-71
2021/12/03 04:48:29;;;;;;;92.00;40.30;;;;;;;;;;5015587;28;20298;-70
2021/12/03 04:50:56;;;;;;;77.35;37.75;;;;;;;;;;5015439;28;20208;-70
2021/12/03 04:53:23;;;;;;;93.10;40.80;;;;;;;;;;5015276;28;20243;-71
2021/12/03 04:55:52;;;;;;;85.38;38.03;;;;;;;;;;5015436;28;20594;-70
2021/12/03 04:58:20;;;;;;;79.50;32.85;;;;;;;;;;5015992;28;20210;-70
2021/12/03 05:00:49;;;;;;;97.75;42.90;;;;;;;;;;5014966;28;20645;-71
2021/12/03 05:03:16;;;;;;;89.78;35.90;;;;;;;;;;5015433;28;20555;-71
2021/12/03 05:05:48;;;;;;;70.60;30.98;;;;;;;;;;5015357;28;20192;-71
2021/12/03 05:08:15;;;;;;;90.90;37.67;;;;;;;;;;5015278;28;20189;-71
2021/12/03 05:10:44;;;;;;;89.32;37.70;;;;;;;;;;5015341;28;20236;-71
2021/12/03 05:13:14;;;;;;;68.20;28.98;;;;;;;;;;5014945;28;20289;-70
2021/12/03 05:15:42;;;;;;;77.55;32.58;;;;;;;;;;5015115;28;20188;-71
2021/12/03 05:18:10;;;;;;;72.15;34.25;;;;;;;;;;5015529;28;20322;-83
2021/12/03 05:20:38;;;;;;;82.10;35.17;;;;;;;;;;5015763;28;20299;-82
2021/12/03 05:23:05;;;;;;;76.53;34.05;;;;;;;;;;5016360;28;20296;-83
2021/12/03 05:25:33;;;;;;;80.65;34.22;;;;;;;;;;5015185;28;20716;-83
2021/12/03 05:28:00;;;;;;;50.22;22.55;;;;;;;;;;5014886;28;20202;-82
2021/12/03 05:30:29;;;;;;;60.63;24.67;;;;;;;;;;5014931;28;20580;-81
2021/12/03 05:32:57;;;;;;;86.28;38.72;;;;;;;;;;5014667;28;20287;-82
2021/12/03 05:35:25;;;;;;;71.32;30.15;;;;;;;;;;4996625;28;20636;-83
2021/12/03 05:37:52;;;;;;;96.82;38.70;;;;;;;;;;4996170;28;20284;-83
2021/12/03 05:40:20;;;;;;;101.43;36.42;;;;;;;;;;4994964;28;20203;-82
2021/12/03 05:42:47;;;;;;;79.28;32.63;;;;;;;;;;4995388;28;20605;-81
2021/12/03 05:45:16;;;;;;;94.28;34.40;;;;;;;;;;4995191;28;20702;-80
2021/12/03 05:47:45;;;;;;;84.38;36.75;;;;;;;;;;4994628;28;20693;-84
2021/12/03 05:50:13;;;;;;;86.68;32.78;;;;;;;;;;4994775;28;20308;-82
2021/12/03 05:52:40;;;;;;;64.30;26.17;;;;;;;;;;4995132;28;20261;-85
2021/12/03 05:55:09;;;;;;;74.10;32.67;;;;;;;;;;4994561;28;20200;-84
2021/12/03 05:57:36;;;;;;;84.55;36.63;;;;;;;;;;4994936;28;20241;-83
2021/12/03 06:00:05;;;;;;;90.00;33.80;;;;;;;;;;4995047;28;20287;-84
2021/12/03 06:02:32;;;;;;;79.50;35.10;;;;;;;;;;4994901;28;20198;-84
2021/12/03 06:05:01;;;;;;;79.20;35.05;;;;;;;;;;4994750;28;20288;-84
2021/12/03 06:07:28;;;;;;;84.07;35.50;;;;;;;;;;4995228;28;20293;-84
2021/12/03 06:09:55;;;;;;;86.63;37.08;;;;;;;;;;4995121;28;20308;-83
2021/12/03 06:12:22;;;;;;;84.13;35.53;;;;;;;;;;4996201;28;20301;-84
2021/12/03 06:14:50;;;;;;;89.50;35.13;;;;;;;;;;4995270;28;20237;-82
2021/12/03 06:17:17;;;;;;;93.38;37.80;;;;;;;;;;4994981;28;20316;-82
2021/12/03 06:19:45;;;;;;;86.97;32.38;;;;;;;;;;4994361;28;20293;-82
2021/12/03 06:22:13;;;;;;;83.30;36.15;;;;;;;;;;4994330;28;20224;-82
2021/12/03 06:24:41;;;;;;;66.65;28.17;;;;;;;;;;4994676;28;20702;-81
2021/12/03 06:27:09;;;;;;;62.05;28.00;;;;;;;;;;4993946;28;20291;-81
2021/12/03 06:29:37;;;;;;;91.75;36.45;;;;;;;;;;4994157;28;20283;-83
2021/12/03 06:32:05;;;;;;;88.57;36.90;;;;;;;;;;4994313;28;20201;-83
2021/12/03 06:34:32;;;;;;;78.60;33.47;;;;;;;;;;4994775;28;20193;-84
2021/12/03 06:36:59;;;;;;;98.60;37.30;;;;;;;;;;4995311;28;20292;-73
2021/12/03 06:39:28;;;;;;;87.53;36.60;;;;;;;;;;4994221;28;20204;-82
2021/12/03 06:41:55;;;;;;;79.75;36.42;;;;;;;;;;4994181;28;20726;-82
2021/12/03 06:44:23;;;;;;;86.72;33.78;;;;;;;;;;4994478;28;20292;-83
2021/12/03 06:46:52;;;;;;;84.85;36.65;;;;;;;;;;4995066;28;20197;-82
2021/12/03 06:49:19;;;;;;;88.13;35.88;;;;;;;;;;4994568;28;20213;-82
2021/12/03 06:51:47;;;;;;;76.65;35.97;;;;;;;;;;4996224;28;20304;-82
2021/12/03 06:54:23;;;;;;;86.00;38.30;;;;;;;;;;4995628;28;20241;-82
2021/12/03 06:56:52;;;;;;;78.75;36.40;;;;;;;;;;4994796;28;20516;-82
2021/12/03 06:59:20;;;;;;;74.13;31.02;;;;;;;;;;4994338;28;20241;-82
2021/12/03 07:01:47;;;;;;;78.80;36.08;;;;;;;;;;4994109;28;20232;-83
2021/12/03 07:04:17;;;;;;;75.00;35.08;;;;;;;;;;4994721;28;20284;-82
2021/12/03 07:06:44;;;;;;;75.63;34.13;;;;;;;;;;4996092;28;20505;-82
2021/12/03 07:09:11;;;;;;;84.30;37.10;;;;;;;;;;4994526;28;20617;-82
2021/12/03 07:11:41;;;;;;;91.32;35.38;;;;;;;;;;4995423;28;20213;-82
2021/12/03 07:14:09;;;;;;;69.78;34.58;;;;;;;;;;4994082;28;20224;-82
2021/12/03 07:16:38;;;;;;;79.97;35.50;;;;;;;;;;4993310;28;20326;-82
2021/12/03 07:19:06;;;;;;;82.30;38.22;;;;;;;;;;4993817;28;20603;-82
2021/12/03 07:21:33;;;;;;;80.60;34.63;;;;;;;;;;4993508;28;20202;-82
2021/12/03 07:24:02;;;;;;;66.22;31.77;;;;;;;;;;4994139;28;20202;-82
2021/12/03 07:26:31;;;;;;;66.95;33.88;;;;;;;;;;4993756;28;20193;-82
2021/12/03 07:28:59;;;;;;;81.72;37.67;;;;;;;;;;4993865;28;20234;-82
2021/12/03 07:31:28;;;;;;;57.60;28.17;;;;;;;;;;4994029;28;20333;-82
2021/12/03 07:33:57;;;;;;;76.50;35.20;;;;;;;;;;4993412;28;20613;-82
2021/12/03 07:36:26;;;;;;;70.95;38.03;;;;;;;;;;4994068;28;20205;-83
2021/12/03 07:38:53;;;;;;;70.85;35.92;;;;;;;;;;4995488;28;20618;-82
2021/12/03 07:41:21;;;;;;;80.78;37.22;;;;;;;;;;4997102;28;20652;-83
2021/12/03 07:43:48;;;;;;;72.90;37.20;;;;;;;;;;4997121;28;20240;-83
2021/12/03 07:46:16;;;;;;;64.18;29.05;;;;;;;;;;4997829;28;20292;-82
2021/12/03 07:48:46;;;;;;;69.35;35.17;;;;;;;;;;4997374;28;20560;-83
2021/12/03 07:51:14;;;;;;;63.10;27.17;;;;;;;;;;4997047;28;20272;-83
2021/12/03 07:53:43;;;;;;;73.18;35.00;;;;;;;;;;4996919;28;20244;-82
2021/12/03 07:56:11;;;;;;;65.60;32.50;;;;;;;;;;4996901;28;20207;-82
2021/12/03 07:58:38;;;;;;;63.08;34.78;;;;;;;;;;4996888;28;20205;-82
2021/12/03 08:01:11;;;;;;;73.22;37.00;;;;;;;;;;4996816;28;20233;-82
2021/12/03 08:03:38;;;;;;;70.55;35.13;;;;;;;;;;4997226;28;20281;-82
2021/12/03 08:06:09;;;;;;;67.88;33.80;;;;;;;;;;4996960;28;20203;-82
2021/12/03 08:08:38;;;;;;;77.88;38.17;;;;;;;;;;4996683;28;20185;-82
2021/12/03 08:11:05;;;;;;;65.93;32.95;;;;;;;;;;4996789;28;20275;-82
2021/12/03 08:13:34;;;;;;;76.28;38.42;;;;;;;;;;4996946;28;20617;-82
2021/12/03 08:16:05;;;;;;;69.60;31.70;;;;;;;;;;4996638;28;20194;-81
2021/12/03 08:18:32;;;;;;;70.28;31.92;;;;;;;;;;4996924;28;20186;-82
2021/12/03 08:21:00;;;;;;;76.78;36.60;;;;;;;;;;4996241;28;20234;-81
2021/12/03 08:23:28;;;;;;;71.50;34.47;;;;;;;;;;4996245;28;20667;-82
2021/12/03 08:25:56;;;;;;;69.10;34.65;;;;;;;;;;4996524;28;20255;-82
2021/12/03 08:28:23;;;;;;;79.68;35.45;;;;;;;;;;4996633;28;20229;-82
2021/12/03 08:30:50;;;;;;;67.43;35.05;;;;;;;;;;4996584;28;20230;-81
2021/12/03 08:33:18;;;;;;;69.10;33.30;;;;;;;;;;4996678;28;20578;-81
2021/12/03 08:35:45;;;;;;;65.75;32.45;;;;;;;;;;4996659;28;20284;-81
2021/12/03 08:38:12;;;;;;;72.45;32.67;;;;;;;;;;4995940;28;20296;-80
2021/12/03 08:40:41;;;;;;;54.38;30.60;;;;;;;;;;4995928;28;20242;-81
2021/12/03 08:43:14;;;;;;;46.10;24.15;;;;;;;;;;4995856;28;20202;-79
2021/12/03 08:45:41;;;;;;;65.95;33.75;;;;;;;;;;4996310;28;20225;-80
2021/12/03 08:48:09;;;;;;;65.97;34.45;;;;;;;;;;4996331;28;20198;-80
2021/12/03 08:50:46;;;;;;;75.88;34.90;;;;;;;;;;4995563;28;20332;-80
2021/12/03 08:56:00;;;;;;;71.43;36.03;;;;;;;;;;4975263;28;20209;-80
2021/12/03 08:58:27;;;;;;;63.00;28.70;;;;;;;;;;4995703;28;20298;-80
2021/12/03 09:00:55;;;;;;;62.33;33.00;;;;;;;;;;4996028;28;20205;-80
2021/12/03 09:03:22;;;;;;;71.32;34.22;;;;;;;;;;4995883;28;20300;-79
2021/12/03 09:05:49;;;;;;;65.68;31.80;;;;;;;;;;4995887;28;20193;-79
2021/12/03 09:08:23;;;;;;;69.93;33.45;;;;;;;;;;4995729;28;20236;-79
2021/12/03 09:10:50;;;;;;;70.22;34.35;;;;;;;;;;4996107;28;20218;-81
2021/12/03 09:13:19;;;;;;;65.97;31.77;;;;;;;;;;4995283;28;20201;-81
2021/12/03 09:15:52;;;;;;;64.80;32.25;;;;;;;;;;4995886;28;20197;-79
2021/12/03 09:18:32;;;;;;;60.40;29.70;;;;;;;;;;4995342;28;20570;-79
2021/12/03 09:21:03;;;;;;;68.13;28.88;;;;;;;;;;4995276;28;20189;-79
2021/12/03 09:23:40;;;;;;;66.00;32.50;;;;;;;;;;4995084;28;20209;-78
2021/12/03 09:26:11;;;;;;;68.97;32.30;;;;;;;;;;4996001;28;20191;-79
2021/12/03 09:28:41;;;;;;;60.80;29.10;;;;;;;;;;4995250;28;20197;-79
2021/12/03 09:31:11;;;;;;;55.22;26.92;;;;;;;;;;5008929;28;20208;-79
2021/12/03 09:33:40;;;;;;;59.97;28.95;;;;;;;;;;5014774;28;20294;-79
2021/12/03 09:36:09;;;;;;;48.45;25.52;;;;;;;;;;5014490;28;20213;-79
2021/12/03 09:38:36;;;;;;;58.65;26.33;;;;;;;;;;5014541;28;20673;-78
2021/12/03 09:41:08;;;;;;;47.10;26.65;;;;;;;;;;5015523;28;20203;-79
2021/12/03 09:43:37;;;;;;;49.85;26.85;;;;;;;;;;5015206;28;20644;-79
2021/12/03 09:46:12;;;;;;;45.45;25.88;;;;;;;;;;5014844;28;20200;-79
2021/12/03 09:49:18;;;;;;;44.97;21.52;;;;;;;;;;5015560;28;20579;-79
2021/12/03 09:51:52;;;;;;;41.60;24.23;;;;;;;;;;5014512;28;20316;-79
2021/12/03 09:54:24;;;;;;;39.78;22.85;;;;;;;;;;5015117;28;20195;-79
2021/12/03 09:56:56;;;;;;;38.70;23.75;;;;;;;;;;5014798;28;20527;-79
2021/12/03 10:02:17;;;;;;;35.75;19.85;;;;;;;;;;5013522;28;20606;-78
2021/12/03 10:05:09;;;;;;;28.63;16.35;;;;;;;;;;5014749;28;20192;-78
2021/12/03 10:13:21;;;;;;;26.38;14.00;;;;;;;;;;5014197;28;20180;-78
2021/12/03 10:15:59;;;;;;;23.27;11.38;;;;;;;;;;5014073;28;20287;-77
2021/12/03 10:18:41;;;;;;;20.83;12.15;;;;;;;;;;5013702;28;20243;-78
2021/12/03 10:21:17;;;;;;;38.38;14.32;;;;;;;;;;5014378;28;20192;-77
2021/12/03 10:29:41;;;;;;;19.77;11.45;;;;;;;;;;5014038;28;20647;-77
2021/12/03 10:40:50;;;;;;;19.77;7.78;;;;;;;;;;5013880;28;20211;-78
2021/12/03 10:43:50;;;;;;;16.88;8.27;;;;;;;;;;5014293;28;20213;-77
2021/12/03 10:46:39;;;;;;;21.55;8.00;;;;;;;;;;5013680;28;20202;-77
2021/12/03 10:49:20;;;;;;;22.67;8.13;;;;;;;;;;5014507;28;20218;-77
2021/12/03 10:51:58;;;;;;;12.52;6.00;;;;;;;;;;5014076;28;20258;-77
2021/12/03 10:55:14;;;;;;;12.77;7.85;;;;;;;;;;5014207;28;20195;-77
2021/12/03 10:57:56;;;;;;;14.70;8.45;;;;;;;;;;5014116;28;20545;-77
2021/12/03 11:34:47;;;;;;;21.10;8.20;;;;;;;;;;4961533;28;20195;-76
2021/12/03 13:18:24;;;;;;;9.10;4.75;;;;;;;;;;5028291;28;20684;-72
2021/12/03 14:39:24;;;;;;;8.65;3.90;;;;;;;;;;5130255;27;20223;-71
2021/12/03 14:42:19;;;;;;;9.10;3.58;;;;;;;;;;5136895;27;20190;-71
2021/12/03 14:44:58;;;;;;;7.38;4.20;;;;;;;;;;5137160;27;20677;-71
2021/12/03 14:47:52;;;;;;;10.60;4.60;;;;;;;;;;5137016;27;20213;-72
2021/12/03 14:50:38;;;;;;;11.65;4.97;;;;;;;;;;5137010;27;20219;-72
2021/12/03 14:55:54;;;;;;;7.80;4.47;;;;;;;;;;5135216;27;20551;-72
2021/12/03 14:58:23;;;;;;;7.90;3.22;;;;;;;;;;5136865;27;20664;-73
2021/12/03 15:00:57;;;;;;;3.90;3.50;;;;;;;;;;5137087;27;20345;-74
2021/12/03 15:06:20;;;;;;;6.82;4.35;;;;;;;;;;5136527;27;20203;-73
2021/12/03 15:08:53;;;;;;;7.93;3.05;;;;;;;;;;5137234;27;20669;-72
2021/12/03 15:25:27;;;;;;;4.97;4.22;;;;;;;;;;5135998;27;20256;-72
2021/12/03 15:36:25;;;;;;;3.17;2.97;;;;;;;;;;5111351;27;20524;-72
2021/12/03 15:55:54;;;;;;;9.85;3.60;;;;;;;;;;5110709;28;20206;-74
2021/12/03 15:58:46;;;;;;;3.83;3.47;;;;;;;;;;5110831;28;20204;-72
2021/12/03 16:04:08;;;;;;;5.82;3.70;;;;;;;;;;5110752;28;20180;-72
2021/12/03 16:06:48;;;;;;;7.15;3.50;;;;;;;;;;5111153;28;20183;-74
2021/12/03 16:09:32;;;;;;;7.53;4.90;;;;;;;;;;5110674;28;20185;-73
2021/12/03 16:12:09;;;;;;;8.35;4.78;;;;;;;;;;5111034;28;20196;-74
2021/12/03 16:14:55;;;;;;;7.03;5.10;;;;;;;;;;5110221;28;20209;-75
2021/12/03 16:17:41;;;;;;;4.57;4.18;;;;;;;;;;5111111;28;20212;-76
2021/12/03 16:20:28;;;;;;;5.72;5.22;;;;;;;;;;5110547;28;20194;-78
2021/12/03 16:23:11;;;;;;;10.05;6.20;;;;;;;;;;5110605;28;20555;-77
2021/12/03 16:53:22;;;;;;;8.38;6.22;;;;;;;;;;5070240;28;20285;-76
2021/12/03 16:55:59;;;;;;;11.65;6.95;;;;;;;;;;5096820;28;20603;-74
2021/12/03 16:58:28;;;;;;;9.85;7.65;;;;;;;;;;5096774;28;20205;-74
2021/12/03 17:01:00;;;;;;;8.40;7.55;;;;;;;;;;5096102;28;20682;-78
2021/12/03 17:03:35;;;;;;;8.75;7.85;;;;;;;;;;5096846;28;20607;-77
2021/12/03 17:48:15;;;;;;;10.35;9.00;;;;;;;;;;5095148;28;20666;-70
2021/12/03 17:51:01;;;;;;;11.93;9.00;;;;;;;;;;5095176;28;20195;-71
2021/12/03 17:56:15;;;;;;;16.88;12.55;;;;;;;;;;5094755;28;20210;-71
2021/12/03 17:58:44;;;;;;;10.43;9.32;;;;;;;;;;5094049;28;20204;-71
2021/12/03 18:01:15;;;;;;;15.77;10.88;;;;;;;;;;5094979;28;20193;-71
2021/12/03 18:03:52;;;;;;;15.50;10.13;;;;;;;;;;5094715;28;20244;-70
2021/12/03 18:09:19;;;;;;;14.57;9.88;;;;;;;;;;5094480;28;20221;-71
2021/12/03 18:15:10;;;;;;;14.38;11.55;;;;;;;;;;5067946;28;20206;-71
2021/12/03 18:45:22;;;;;;;9.98;8.98;;;;;;;;;;5094040;28;20547;-71
2021/12/03 18:48:24;;;;;;;12.20;9.32;;;;;;;;;;5094387;28;20310;-71
2021/12/03 18:51:19;;;;;;;9.73;8.05;;;;;;;;;;5094190;28;20647;-72
2021/12/03 18:53:59;;;;;;;12.20;8.80;;;;;;;;;;5093518;28;20278;-70
2021/12/03 18:56:32;;;;;;;12.02;10.00;;;;;;;;;;5094209;28;20658;-71
2021/12/03 18:59:03;;;;;;;14.95;11.57;;;;;;;;;;5094160;28;20644;-71
2021/12/03 19:01:32;;;;;;;14.93;11.85;;;;;;;;;;5093612;28;20186;-71
2021/12/03 19:04:09;;;;;;;11.93;9.98;;;;;;;;;;5093540;28;20207;-70
2021/12/03 19:06:40;;;;;;;14.65;12.68;;;;;;;;;;5094142;28;20245;-70
2021/12/03 19:09:12;;;;;;;12.00;10.65;;;;;;;;;;5093897;28;20201;-70
2021/12/03 19:11:44;;;;;;;11.23;8.50;;;;;;;;;;5093210;28;20269;-75
2021/12/03 19:14:11;;;;;;;11.88;8.57;;;;;;;;;;5091407;28;20194;-76
2021/12/03 19:16:39;;;;;;;14.40;7.60;;;;;;;;;;5093133;28;20215;-69
2021/12/03 19:19:08;;;;;;;10.30;6.65;;;;;;;;;;5093766;28;20278;-69
2021/12/03 19:21:39;;;;;;;9.93;8.93;;;;;;;;;;5093238;28;20280;-69
2021/12/03 19:24:07;;;;;;;9.70;8.70;;;;;;;;;;5093384;28;20206;-69
2021/12/03 19:26:36;;;;;;;12.73;10.27;;;;;;;;;;5092857;28;20231;-69
2021/12/03 19:29:04;;;;;;;9.55;8.55;;;;;;;;;;5092618;28;20655;-69
2021/12/03 19:31:32;;;;;;;12.02;9.88;;;;;;;;;;5092958;28;20198;-69
2021/12/03 19:34:01;;;;;;;10.15;8.27;;;;;;;;;;5092684;28;20332;-69
2021/12/03 19:36:30;;;;;;;13.38;9.18;;;;;;;;;;5093253;28;20579;-69
2021/12/03 19:38:58;;;;;;;10.00;9.10;;;;;;;;;;5092979;28;20715;-69
2021/12/03 19:41:31;;;;;;;9.95;7.57;;;;;;;;;;5092880;28;20592;-69
2021/12/03 19:44:02;;;;;;;11.45;8.05;;;;;;;;;;5093389;28;20188;-69
2021/12/03 19:46:31;;;;;;;11.82;7.35;;;;;;;;;;5093274;28;20209;-69
2021/12/03 19:49:07;;;;;;;8.50;7.63;;;;;;;;;;5093109;28;20205;-69
2021/12/03 19:51:40;;;;;;;10.98;7.57;;;;;;;;;;5092794;28;20628;-69
2021/12/03 19:54:08;;;;;;;9.18;7.80;;;;;;;;;;5093215;28;20190;-68
2021/12/03 19:56:35;;;;;;;10.25;8.48;;;;;;;;;;5092343;28;20693;-69
2021/12/03 19:59:04;;;;;;;8.82;7.53;;;;;;;;;;5093174;28;20244;-69
2021/12/03 20:01:33;;;;;;;10.68;8.40;;;;;;;;;;5093052;28;20286;-69
2021/12/03 20:04:00;;;;;;;8.63;7.75;;;;;;;;;;5092894;28;20205;-69
2021/12/03 20:06:28;;;;;;;9.13;8.23;;;;;;;;;;5093051;28;20251;-69
2021/12/03 20:08:56;;;;;;;9.57;8.65;;;;;;;;;;5092666;28;20714;-69
2021/12/03 20:11:26;;;;;;;13.70;10.43;;;;;;;;;;5092749;28;20197;-69
2021/12/03 20:13:58;;;;;;;10.65;8.20;;;;;;;;;;5092916;28;20186;-69
2021/12/03 20:16:29;;;;;;;9.00;8.20;;;;;;;;;;5092687;28;20676;-69
2021/12/03 20:19:01;;;;;;;9.93;9.02;;;;;;;;;;5092565;28;20235;-70
2021/12/03 20:21:30;;;;;;;8.35;6.90;;;;;;;;;;5093768;28;20665;-70
2021/12/03 20:24:08;;;;;;;9.07;7.85;;;;;;;;;;5096448;28;20719;-71
2021/12/03 20:26:46;;;;;;;11.00;8.82;;;;;;;;;;5096424;28;20194;-69
2021/12/03 20:29:17;;;;;;;11.45;9.27;;;;;;;;;;5096275;28;20189;-69
2021/12/03 20:31:48;;;;;;;10.40;8.90;;;;;;;;;;5096765;28;20210;-70
2021/12/03 20:34:45;;;;;;;10.88;9.27;;;;;;;;;;5096347;28;20292;-69
2021/12/03 20:37:14;;;;;;;9.40;7.97;;;;;;;;;;5096435;28;20215;-69
2021/12/03 20:39:43;;;;;;;10.68;8.52;;;;;;;;;;5096083;28;20271;-70
2021/12/03 20:42:16;;;;;;;13.70;9.35;;;;;;;;;;5096360;28;20604;-69
2021/12/03 20:44:55;;;;;;;9.95;8.63;;;;;;;;;;5096155;28;20190;-69
2021/12/03 21:09:45;;;;;;;10.70;8.88;;;;;;;;;;5095532;28;20638;-69
2021/12/03 21:12:21;;;;;;;10.52;8.73;;;;;;;;;;5095610;28;20221;-69
2021/12/03 21:14:57;;;;;;;9.10;7.97;;;;;;;;;;5095553;28;20193;-69
2021/12/03 21:17:47;;;;;;;11.10;8.77;;;;;;;;;;5095600;28;20207;-71
2021/12/03 21:20:22;;;;;;;11.85;9.25;;;;;;;;;;5095967;28;20273;-68
2021/12/03 21:22:52;;;;;;;15.00;8.45;;;;;;;;;;5095142;28;20189;-68
2021/12/03 21:25:22;;;;;;;10.40;8.52;;;;;;;;;;5095857;28;20199;-71
2021/12/03 21:27:56;;;;;;;11.43;8.70;;;;;;;;;;5095505;28;20200;-71
2021/12/03 21:30:32;;;;;;;10.25;8.90;;;;;;;;;;5095774;28;20187;-68
2021/12/03 21:33:14;;;;;;;10.02;9.02;;;;;;;;;;5095442;28;20533;-68
2021/12/03 21:39:01;;;;;;;8.85;8.02;;;;;;;;;;5095544;28;20262;-68